Aérodrome :
LOGIN :

S'inscrire | Disclaimer

   EN    FR    IT 

 










Légende :    VFR   VFR Marginal   IFR   IFR Intensif   IFR Très Intensif
Visi : 
Plafond : 
>= 8 km
>= 3000ft
5 à 8 km
1000 à 3000 ft
1500m à 5 km
500 à 1000 ft
800 à 1500m
200 à 500 ft
< 800m
< 200 ft
Symboles :   Orages  Brouillard  Fortes neiges  Fortes précipitations  Vent > 20 kt
SIGMETs :   Divers  Orages  Givrage  Turbulence  Onde Orograph.  Cendres Volcan.






- Altitude de l'aérodrome : 309 ft
- Code IATA : FNI


LFTW - Nîmes Garons

DERNIER METAR :
  • 251100Z AUTO 15011KT 9999 BKN023 BKN030 18/12 Q1011 NOSIG

METARs EXPIRÉS :
  • 251030Z AUTO 14010KT 110V170 9999 BKN019 OVC025 18/13 Q1011 NOSIG
  • 251000Z AUTO 08007KT 040V110 9999 BKN017 BKN023 OVC028 17/13 Q1012 NOSIG
  • 250930Z AUTO VRB03KT 9999 OVC017 15/12 Q1012 BECMG 14015KT
  • 250900Z AUTO 08007KT 040V100 9999 BKN019 BKN028 OVC038 15/12 Q1012 BECMG 15015G25KT
  • 250830Z AUTO 08006KT 040V100 9999 BKN020 BKN037 14/11 Q1012 BECMG 15015G25KT

TAF TAF LFTW
Valide du 25 à 09h jusqu'au 26 à 09h UTC


250800Z 2509/2609 08005KT 9999 BKN020 BKN035
BECMG 2511/2513 14015KT SCT030
BECMG 2517/2519 VRB05KT BKN010
BECMG 2521/2524 32012KT BKN045
BECMG 2600/2603 RA



MET'MAP, la Météo Aéronautique d'un coup d'oeil ! - Copyright ORBIFLY Décembre 2007 - Disclaimer

ORBIFLY MET'MAP TEAM :

Programmation & Développement : Alexandra Zaïnal
Sur une idée originale de : Baudouin d'Aumeries
Assistance à la programmation : Marc-Olivier Méhu
Soutien technique & logistique : Manuel Goepfert

Contact : metmap@orbifly.com




SOURCES & CREDITS :

   NOAA